createdAt,value
2023-05-05T00:00:55.305Z,35.85
2023-05-05T00:01:55.383Z,35.83
2023-05-05T00:02:55.414Z,35.81
2023-05-05T00:03:55.352Z,35.80
2023-05-05T00:04:55.324Z,35.79
2023-05-05T00:05:55.342Z,35.77
2023-05-05T00:06:56.198Z,35.79
2023-05-05T00:07:55.346Z,35.77
2023-05-05T00:08:55.352Z,35.76
2023-05-05T00:09:55.362Z,35.78
2023-05-05T00:10:55.403Z,35.77
2023-05-05T00:11:55.401Z,35.76
2023-05-05T00:12:55.426Z,35.76
2023-05-05T00:13:55.408Z,35.74
2023-05-05T00:14:55.419Z,35.75
2023-05-05T00:15:55.431Z,35.75
2023-05-05T00:16:55.490Z,35.77
2023-05-05T00:17:55.479Z,35.72
2023-05-05T00:18:55.471Z,35.72
2023-05-05T00:19:55.476Z,35.75
2023-05-05T00:20:55.492Z,35.74
2023-05-05T00:21:55.513Z,35.74
2023-05-05T00:22:55.528Z,35.74
2023-05-05T00:23:55.534Z,35.74
2023-05-05T00:24:55.539Z,35.74
2023-05-05T00:25:55.549Z,35.73
2023-05-05T00:26:55.596Z,35.75
2023-05-05T00:27:55.565Z,35.72
2023-05-05T00:28:55.576Z,35.74
2023-05-05T00:29:55.586Z,35.78
2023-05-05T00:30:55.644Z,35.75
2023-05-05T00:31:55.605Z,35.74
2023-05-05T00:32:55.666Z,35.74
2023-05-05T00:33:55.640Z,35.74
2023-05-05T00:34:55.657Z,35.74
2023-05-05T00:35:55.655Z,35.73
2023-05-05T00:36:55.669Z,35.76
2023-05-05T00:37:55.702Z,35.77
2023-05-05T00:38:55.695Z,35.77
2023-05-05T00:39:55.713Z,35.76
2023-05-05T00:40:55.739Z,35.79
2023-05-05T00:41:55.745Z,35.80
2023-05-05T00:42:55.838Z,35.77
2023-05-05T00:43:55.758Z,35.78
2023-05-05T00:44:55.780Z,35.76
2023-05-05T00:45:55.800Z,35.79
2023-05-05T00:46:55.806Z,35.79
2023-05-05T00:47:55.850Z,35.79
2023-05-05T00:48:55.947Z,35.79
2023-05-05T00:49:55.855Z,35.78
2023-05-05T00:50:55.865Z,35.80
2023-05-05T00:51:55.874Z,35.78
2023-05-05T00:52:55.888Z,35.77
2023-05-05T00:53:55.930Z,35.79
2023-05-05T00:54:55.921Z,35.78
2023-05-05T00:55:55.935Z,35.77
2023-05-05T00:56:55.949Z,35.78
2023-05-05T00:57:55.962Z,35.79
2023-05-05T00:58:56.030Z,35.77
2023-05-05T00:59:55.989Z,35.77
2023-05-05T01:00:55.994Z,35.77
2023-05-05T01:01:56.078Z,35.79
2023-05-05T01:02:56.226Z,35.79
2023-05-05T01:03:56.058Z,35.79
2023-05-05T01:04:56.054Z,35.79
2023-05-05T01:05:56.072Z,35.78
2023-05-05T01:06:56.092Z,35.78
2023-05-05T01:07:56.101Z,35.81
2023-05-05T01:08:56.092Z,35.76
2023-05-05T01:10:18.275Z,35.80
2023-05-05T01:10:56.114Z,35.79
2023-05-05T01:11:56.099Z,35.81
2023-05-05T01:12:56.152Z,35.80
2023-05-05T01:13:56.106Z,35.80
2023-05-05T01:14:56.130Z,35.79
2023-05-05T01:15:56.136Z,35.80
2023-05-05T01:16:56.106Z,35.78
2023-05-05T01:17:56.164Z,35.80
2023-05-05T01:18:56.105Z,35.80
2023-05-05T01:19:56.101Z,35.77
2023-05-05T01:20:56.101Z,35.79
2023-05-05T01:21:56.105Z,35.79
2023-05-05T01:22:56.102Z,35.80
2023-05-05T01:23:56.101Z,35.80
2023-05-05T01:24:56.094Z,35.80
2023-05-05T01:25:56.093Z,35.80
2023-05-05T01:26:56.080Z,35.81
2023-05-05T01:27:56.096Z,35.78
2023-05-05T01:28:56.081Z,35.80
2023-05-05T01:29:56.074Z,35.79
2023-05-05T01:30:56.099Z,35.80
2023-05-05T01:31:56.209Z,35.79
2023-05-05T01:32:56.080Z,35.79
2023-05-05T01:33:56.072Z,35.79
2023-05-05T01:34:56.066Z,35.79
2023-05-05T01:35:56.067Z,35.80
2023-05-05T01:36:56.060Z,35.80
2023-05-05T01:37:56.059Z,35.80
2023-05-05T01:38:56.070Z,35.81
2023-05-05T01:39:56.054Z,35.80
2023-05-05T01:40:56.066Z,35.81
2023-05-05T01:41:56.097Z,35.80
2023-05-05T01:42:56.075Z,35.80
2023-05-05T01:43:56.078Z,35.79
2023-05-05T01:44:56.105Z,35.81
2023-05-05T01:45:56.119Z,35.81
2023-05-05T01:46:56.108Z,35.81
2023-05-05T01:47:56.122Z,35.80
2023-05-05T01:48:56.077Z,35.82
2023-05-05T01:49:56.090Z,35.83
2023-05-05T01:50:56.091Z,35.82
2023-05-05T01:51:56.073Z,35.82
2023-05-05T01:52:56.058Z,35.82
2023-05-05T01:53:56.065Z,35.81
2023-05-05T01:54:56.065Z,35.82
2023-05-05T01:55:56.065Z,35.81
2023-05-05T01:56:56.084Z,35.81
2023-05-05T01:57:56.065Z,35.82
2023-05-05T01:58:56.068Z,35.82
2023-05-05T01:59:56.062Z,35.83
2023-05-05T02:00:56.101Z,35.82
2023-05-05T02:01:56.071Z,35.84
2023-05-05T02:02:56.241Z,35.82
2023-05-05T02:03:56.073Z,35.83
2023-05-05T02:04:56.075Z,35.81
2023-05-05T02:05:56.078Z,35.81
2023-05-05T02:06:56.131Z,35.81
2023-05-05T02:07:56.081Z,35.81
2023-05-05T02:08:56.078Z,35.83
2023-05-05T02:09:56.078Z,35.83
2023-05-05T02:10:56.094Z,35.83
2023-05-05T02:11:56.079Z,35.81
2023-05-05T02:12:56.079Z,35.81
2023-05-05T02:13:56.203Z,35.84
2023-05-05T02:14:56.093Z,35.83
2023-05-05T02:15:56.114Z,35.83
2023-05-05T02:16:56.116Z,35.81
2023-05-05T02:17:56.125Z,35.85
2023-05-05T02:18:56.216Z,35.83
2023-05-05T02:19:56.117Z,35.85
2023-05-05T02:20:56.120Z,35.87
2023-05-05T02:21:56.125Z,35.83
2023-05-05T02:22:56.124Z,35.82
2023-05-05T02:23:56.127Z,35.84
2023-05-05T02:24:56.129Z,35.87
2023-05-05T02:25:56.190Z,35.83
2023-05-05T02:26:56.184Z,35.85
2023-05-05T02:27:56.210Z,35.86
2023-05-05T02:28:56.244Z,35.87
2023-05-05T02:29:56.275Z,35.85
2023-05-05T02:30:56.309Z,35.83
2023-05-05T02:31:56.338Z,35.84
2023-05-05T02:32:56.450Z,35.84
2023-05-05T02:33:56.411Z,35.84
2023-05-05T02:34:56.472Z,35.84
2023-05-05T02:35:56.477Z,35.85
2023-05-05T02:36:56.515Z,35.84
2023-05-05T02:37:56.552Z,35.84
2023-05-05T02:38:56.591Z,35.85
2023-05-05T02:39:56.620Z,35.85
2023-05-05T02:40:56.665Z,35.84
2023-05-05T02:41:56.697Z,35.85
2023-05-05T02:42:57.455Z,35.86
2023-05-05T02:43:56.767Z,35.82
2023-05-05T02:44:56.793Z,35.83
2023-05-05T02:45:56.825Z,35.84
2023-05-05T02:46:56.868Z,35.85
2023-05-05T02:47:56.960Z,35.87
2023-05-05T02:48:56.959Z,35.81
2023-05-05T02:49:56.962Z,35.83
2023-05-05T02:50:57.035Z,35.86
2023-05-05T02:51:57.046Z,35.84
2023-05-05T02:52:57.067Z,35.84
2023-05-05T02:53:57.106Z,35.83
2023-05-05T02:54:57.136Z,35.84
2023-05-05T02:55:57.170Z,35.84
2023-05-05T02:56:57.217Z,35.85
2023-05-05T02:57:57.232Z,35.84
2023-05-05T02:58:57.268Z,35.85
2023-05-05T02:59:57.304Z,35.86
2023-05-05T03:00:57.327Z,35.83
2023-05-05T03:01:57.524Z,35.84
2023-05-05T03:02:57.461Z,35.86
2023-05-05T03:03:57.573Z,35.83
2023-05-05T03:04:57.466Z,35.85
2023-05-05T03:05:57.504Z,35.86
2023-05-05T03:06:57.563Z,35.84
2023-05-05T03:07:57.573Z,35.84
2023-05-05T03:08:57.627Z,35.85
2023-05-05T03:09:57.657Z,35.85
2023-05-05T03:10:57.682Z,35.86
2023-05-05T03:11:57.720Z,35.84
2023-05-05T03:12:57.784Z,35.85
2023-05-05T03:13:57.804Z,35.84
2023-05-05T03:14:57.833Z,35.85
2023-05-05T03:15:57.936Z,35.85
2023-05-05T03:16:57.925Z,35.83
2023-05-05T03:17:57.985Z,35.84
2023-05-05T03:18:57.980Z,35.84
2023-05-05T03:19:58.015Z,35.84
2023-05-05T03:20:58.063Z,35.85
2023-05-05T03:21:58.105Z,35.85
2023-05-05T03:22:58.165Z,35.84
2023-05-05T03:23:58.175Z,35.86
2023-05-05T03:24:58.214Z,35.84
2023-05-05T03:25:58.257Z,35.88
2023-05-05T03:26:58.299Z,35.87
2023-05-05T03:27:58.338Z,35.85
2023-05-05T03:28:58.383Z,35.86
2023-05-05T03:29:58.413Z,35.84
2023-05-05T03:30:58.452Z,35.85
2023-05-05T03:31:58.543Z,35.84
2023-05-05T03:32:58.540Z,35.85
2023-05-05T03:33:58.544Z,35.84
2023-05-05T03:34:58.590Z,35.84
2023-05-05T03:35:58.617Z,35.83
2023-05-05T03:36:58.660Z,35.83
2023-05-05T03:37:58.697Z,35.84
2023-05-05T03:38:58.771Z,35.84
2023-05-05T03:39:58.773Z,35.84
2023-05-05T03:40:58.815Z,35.82
2023-05-05T03:41:58.849Z,35.84
2023-05-05T03:42:58.906Z,35.84
2023-05-05T03:43:58.935Z,35.85
2023-05-05T03:44:58.957Z,35.85
2023-05-05T03:45:59.019Z,35.84
2023-05-05T03:46:59.052Z,35.84
2023-05-05T03:47:59.133Z,35.85
2023-05-05T03:48:59.120Z,35.85
2023-05-05T03:49:59.162Z,35.85
2023-05-05T03:50:59.220Z,35.84
2023-05-05T03:51:59.245Z,35.85
2023-05-05T03:52:59.294Z,35.85
2023-05-05T03:53:59.341Z,35.86
2023-05-05T03:54:59.411Z,35.85
2023-05-05T03:55:59.434Z,35.85
2023-05-05T03:56:59.477Z,35.87
2023-05-05T03:57:59.519Z,35.86
2023-05-05T03:58:59.564Z,35.86
2023-05-05T03:59:59.617Z,35.86
2023-05-05T04:00:59.651Z,35.89
2023-05-05T04:01:59.708Z,35.84
2023-05-05T04:02:59.851Z,35.87
2023-05-05T04:03:59.803Z,35.88
2023-05-05T04:04:59.814Z,35.87
2023-05-05T04:05:59.864Z,35.87
2023-05-05T04:06:59.913Z,35.86
2023-05-05T04:07:59.957Z,35.85
2023-05-05T04:09:00.010Z,35.88
2023-05-05T04:10:00.078Z,35.86
2023-05-05T04:11:00.133Z,35.88
2023-05-05T04:12:00.148Z,35.87
2023-05-05T04:13:00.233Z,35.90
2023-05-05T04:14:00.223Z,35.88
2023-05-05T04:15:00.307Z,35.85
2023-05-05T04:16:00.391Z,35.87
2023-05-05T04:17:00.354Z,35.88
2023-05-05T04:18:00.412Z,35.85
2023-05-05T04:19:00.433Z,35.83
2023-05-05T04:20:00.470Z,35.85
2023-05-05T04:21:00.510Z,35.87
2023-05-05T04:22:00.566Z,35.85
2023-05-05T04:23:00.612Z,35.86
2023-05-05T04:24:00.649Z,35.84
2023-05-05T04:25:00.688Z,35.88
2023-05-05T04:26:00.740Z,35.86
2023-05-05T04:27:00.802Z,35.87
2023-05-05T04:28:00.826Z,35.88
2023-05-05T04:29:00.882Z,35.85
2023-05-05T04:30:00.912Z,35.85
2023-05-05T04:31:01.072Z,35.86
2023-05-05T04:32:01.014Z,35.86
2023-05-05T04:33:01.093Z,35.88
2023-05-05T04:34:01.101Z,35.87
2023-05-05T04:35:01.130Z,35.87
2023-05-05T04:36:01.176Z,35.87
2023-05-05T04:37:01.235Z,35.87
2023-05-05T04:38:01.303Z,35.89
2023-05-05T04:39:01.367Z,35.83
2023-05-05T04:40:01.373Z,35.84
2023-05-05T04:41:01.414Z,35.86
2023-05-05T04:42:01.452Z,35.87
2023-05-05T04:43:01.524Z,35.87
2023-05-05T04:44:01.553Z,35.89
2023-05-05T04:45:01.629Z,35.88
2023-05-05T04:46:01.645Z,35.86
2023-05-05T04:47:01.688Z,35.88
2023-05-05T04:48:01.968Z,35.86
2023-05-05T04:49:01.791Z,35.88
2023-05-05T04:50:01.863Z,35.88
2023-05-05T04:51:01.905Z,35.89
2023-05-05T04:52:01.948Z,35.88
2023-05-05T04:53:01.998Z,35.88
2023-05-05T04:54:02.874Z,35.84
2023-05-05T04:55:02.164Z,35.85
2023-05-05T04:56:02.133Z,35.85
2023-05-05T04:57:02.194Z,35.86
2023-05-05T04:58:02.240Z,35.88
2023-05-05T04:59:02.310Z,35.86
2023-05-05T05:00:02.357Z,35.86
2023-05-05T05:01:02.370Z,35.88
2023-05-05T05:02:02.448Z,35.86
2023-05-05T05:03:02.616Z,35.85
2023-05-05T05:04:02.602Z,35.87
2023-05-05T05:05:02.564Z,35.86
2023-05-05T05:06:02.608Z,35.87
2023-05-05T05:07:02.657Z,35.85
2023-05-05T05:08:02.697Z,35.84
2023-05-05T05:09:02.745Z,35.86
2023-05-05T05:10:02.795Z,35.82
2023-05-05T05:11:02.854Z,35.88
2023-05-05T05:12:02.966Z,35.87
2023-05-05T05:13:02.988Z,35.87
2023-05-05T05:14:02.981Z,35.88
2023-05-05T05:15:03.054Z,35.87
2023-05-05T05:16:03.512Z,35.86
2023-05-05T05:17:03.115Z,35.87
2023-05-05T05:18:03.547Z,35.86
2023-05-05T05:19:03.202Z,35.86
2023-05-05T05:20:03.251Z,35.87
2023-05-05T05:21:03.310Z,35.87
2023-05-05T05:22:03.343Z,35.92
2023-05-05T05:23:03.399Z,35.92
2023-05-05T05:24:03.434Z,35.94
2023-05-05T05:25:03.487Z,35.95
2023-05-05T05:26:03.514Z,36.00
2023-05-05T05:27:03.609Z,36.05
2023-05-05T05:28:10.186Z,36.13
2023-05-05T05:29:03.641Z,36.23
2023-05-05T05:30:03.661Z,36.23
2023-05-05T05:31:03.628Z,36.23
2023-05-05T05:32:03.666Z,36.21
2023-05-05T05:33:03.706Z,36.24
2023-05-05T05:34:03.651Z,36.26
2023-05-05T05:35:03.645Z,36.23
2023-05-05T05:36:03.633Z,36.22
2023-05-05T05:37:03.663Z,36.24
2023-05-05T05:38:03.674Z,36.26
2023-05-05T05:39:03.653Z,36.34
2023-05-05T05:40:03.664Z,36.44
2023-05-05T05:41:03.967Z,36.50
2023-05-05T05:42:03.746Z,36.49
2023-05-05T05:43:03.679Z,36.60
2023-05-05T05:44:03.697Z,36.55
2023-05-05T05:45:03.696Z,36.57
2023-05-05T05:46:06.888Z,36.62
2023-05-05T05:47:04.026Z,36.66
2023-05-05T05:48:04.010Z,36.73
2023-05-05T05:49:03.911Z,36.69
2023-05-05T05:50:03.941Z,36.75
2023-05-05T05:51:03.974Z,36.71
2023-05-05T05:52:05.527Z,36.71
2023-05-05T05:53:07.709Z,36.77
2023-05-05T05:54:19.657Z,36.69
2023-05-05T05:55:05.065Z,36.71
2023-05-05T05:56:04.054Z,36.70
2023-05-05T05:57:07.685Z,36.63
2023-05-05T05:58:04.080Z,36.72
2023-05-05T05:59:04.073Z,36.73
2023-05-05T06:00:11.509Z,36.71
2023-05-05T06:01:04.075Z,36.75
2023-05-05T06:02:20.144Z,36.74
2023-05-05T06:03:04.579Z,36.75
2023-05-05T06:05:04.084Z,36.79
2023-05-05T06:07:19.782Z,36.81
2023-05-05T06:08:05.096Z,36.81
2023-05-05T06:09:04.476Z,36.79
2023-05-05T06:10:18.537Z,36.78
2023-05-05T06:11:04.113Z,36.83
2023-05-05T06:12:04.486Z,36.80
2023-05-05T06:13:04.181Z,36.84
2023-05-05T06:14:04.129Z,36.79
2023-05-05T06:16:07.383Z,36.83
2023-05-05T06:17:05.510Z,36.84
2023-05-05T06:18:04.235Z,36.83
2023-05-05T06:19:04.175Z,36.79
2023-05-05T06:20:07.601Z,36.80
2023-05-05T06:21:04.163Z,36.82
2023-05-05T06:22:04.188Z,36.77
2023-05-05T06:23:04.163Z,36.77
2023-05-05T06:24:04.491Z,36.80
2023-05-05T06:25:04.192Z,36.78
2023-05-05T06:26:04.243Z,36.78
2023-05-05T06:27:04.496Z,36.78
2023-05-05T06:28:04.222Z,36.78
2023-05-05T06:29:04.514Z,36.78
2023-05-05T06:30:04.278Z,36.78
2023-05-05T06:31:04.231Z,36.78
2023-05-05T06:32:04.264Z,36.75
2023-05-05T06:33:04.264Z,36.74
2023-05-05T06:34:04.375Z,36.77
2023-05-05T06:35:04.293Z,36.77
2023-05-05T06:36:04.283Z,36.75
2023-05-05T06:37:04.303Z,36.74
2023-05-05T06:38:11.687Z,36.74
2023-05-05T06:39:04.653Z,36.74
2023-05-05T06:40:04.292Z,36.75
2023-05-05T06:41:04.917Z,36.74
2023-05-05T06:42:11.702Z,36.73
2023-05-05T06:43:04.312Z,36.76
2023-05-05T06:44:04.500Z,36.73
2023-05-05T06:45:04.304Z,36.75
2023-05-05T06:46:04.754Z,36.74
2023-05-05T06:47:04.442Z,36.74
2023-05-05T06:48:04.369Z,36.75
2023-05-05T06:49:04.509Z,36.71
2023-05-05T06:50:04.519Z,36.72
2023-05-05T06:51:11.719Z,36.71
2023-05-05T06:52:04.353Z,36.72
2023-05-05T06:53:04.345Z,36.72
2023-05-05T12:17:24.408Z,36.37
2023-05-05T12:18:25.157Z,36.20
2023-05-05T12:19:25.141Z,36.16
2023-05-05T12:20:25.119Z,36.11
2023-05-05T12:21:25.099Z,36.08
2023-05-05T12:22:25.082Z,36.06
2023-05-05T12:23:25.061Z,36.06
2023-05-05T12:24:25.047Z,36.07
2023-05-05T12:25:25.027Z,36.09
2023-05-05T12:26:25.006Z,36.06
2023-05-05T12:27:24.990Z,36.08
2023-05-05T12:28:24.972Z,36.09
2023-05-05T12:29:24.975Z,36.06
2023-05-05T12:30:24.974Z,36.09
2023-05-05T12:31:25.012Z,36.10
2023-05-05T12:32:24.934Z,36.14
2023-05-05T12:33:25.106Z,36.13
2023-05-05T12:34:24.873Z,36.15
2023-05-05T12:35:24.859Z,36.14
2023-05-05T12:36:24.840Z,36.15
2023-05-05T12:37:24.824Z,36.17
2023-05-05T12:38:24.832Z,36.19
2023-05-05T12:39:24.796Z,36.22
2023-05-05T12:40:24.800Z,36.23
2023-05-05T12:41:24.757Z,36.21
2023-05-05T12:42:24.747Z,36.22
2023-05-05T12:43:24.738Z,36.23
2023-05-05T12:44:24.723Z,36.24
2023-05-05T12:45:24.703Z,36.26
2023-05-05T12:46:24.704Z,36.24
2023-05-05T12:47:24.681Z,36.27
2023-05-05T12:48:24.673Z,36.27
2023-05-05T12:49:24.819Z,36.26
2023-05-05T12:50:24.638Z,36.24
2023-05-05T12:51:24.620Z,36.29
2023-05-05T12:52:24.634Z,36.29
2023-05-05T12:53:24.598Z,36.31
2023-05-05T12:54:24.591Z,36.30
2023-05-05T12:55:24.562Z,36.29
2023-05-05T12:56:24.631Z,36.32
2023-05-05T12:57:24.665Z,36.31
2023-05-05T12:58:24.636Z,36.34
2023-05-05T12:59:24.703Z,36.34
2023-05-05T13:00:24.684Z,36.36
2023-05-05T13:01:24.740Z,36.38
2023-05-05T13:02:24.793Z,36.38
2023-05-05T13:03:24.764Z,36.40
2023-05-05T13:04:24.754Z,36.41
2023-05-05T13:05:25.489Z,36.41
2023-05-05T13:06:24.797Z,36.41
2023-05-05T13:07:24.817Z,36.41
2023-05-05T13:08:24.835Z,36.40
2023-05-05T13:09:24.879Z,36.39
2023-05-05T13:10:24.926Z,36.41
2023-05-05T13:11:24.901Z,36.41
2023-05-05T13:12:25.218Z,36.43
2023-05-05T13:13:25.411Z,36.45
2023-05-05T13:14:24.976Z,36.44
2023-05-05T13:15:25.000Z,36.45
2023-05-05T13:16:25.473Z,36.42
2023-05-05T13:17:25.077Z,36.47
2023-05-05T13:18:25.049Z,36.46
2023-05-05T13:19:25.110Z,36.47
2023-05-05T13:20:25.090Z,36.48
2023-05-05T13:21:25.266Z,36.48
2023-05-05T13:22:25.149Z,36.47
2023-05-05T13:23:25.946Z,36.48
2023-05-05T13:24:34.501Z,36.51
2023-05-05T13:25:25.409Z,36.50
2023-05-05T13:26:25.150Z,36.51
2023-05-05T13:27:25.146Z,36.51
2023-05-05T13:28:25.132Z,36.52
2023-05-05T13:29:29.549Z,36.52
2023-05-05T13:30:25.096Z,36.54
2023-05-05T13:31:25.115Z,36.54
2023-05-05T13:32:25.088Z,36.54
2023-05-05T13:33:25.031Z,36.55
2023-05-05T13:34:25.022Z,36.51
2023-05-05T13:35:25.000Z,36.55
2023-05-05T13:36:24.977Z,36.56
2023-05-05T13:37:25.066Z,36.56
2023-05-05T13:38:24.930Z,36.56
2023-05-05T13:39:24.925Z,36.59
2023-05-05T13:40:26.075Z,36.58
2023-05-05T13:41:24.885Z,36.59
2023-05-05T13:42:24.861Z,36.60
2023-05-05T13:43:24.846Z,36.61
2023-05-05T13:44:24.844Z,36.62
2023-05-05T13:45:24.806Z,36.63
2023-05-05T13:46:24.835Z,36.64
2023-05-05T13:47:24.851Z,36.60
2023-05-05T13:48:24.908Z,36.60
2023-05-05T13:49:24.729Z,36.63
2023-05-05T13:50:24.722Z,36.70
2023-05-05T13:51:24.686Z,36.67
2023-05-05T13:52:24.666Z,36.70
2023-05-05T13:53:24.746Z,36.69
2023-05-05T13:54:24.647Z,36.72
2023-05-05T13:55:24.619Z,36.73
2023-05-05T13:56:24.595Z,36.72
2023-05-05T13:57:24.590Z,36.73
2023-05-05T13:58:24.557Z,36.78
2023-05-05T13:59:24.546Z,36.76
2023-05-05T14:00:24.537Z,36.76
2023-05-05T14:01:24.992Z,36.79
2023-05-05T14:02:24.578Z,36.77
2023-05-05T14:03:24.516Z,36.80
2023-05-05T14:04:24.715Z,36.85
2023-05-05T14:05:24.491Z,36.83
2023-05-05T14:06:24.457Z,36.86
2023-05-05T14:07:24.464Z,36.85
2023-05-05T14:08:24.478Z,36.86
2023-05-05T14:09:25.080Z,36.84
2023-05-05T14:10:24.420Z,36.88
2023-05-05T14:11:24.400Z,36.88
2023-05-05T14:12:24.372Z,36.93
2023-05-05T14:13:24.359Z,36.89
2023-05-05T14:14:24.424Z,36.89
2023-05-05T14:15:24.371Z,36.91
2023-05-05T14:16:24.375Z,36.93
2023-05-05T14:17:24.397Z,36.94
2023-05-05T14:18:24.388Z,36.94
2023-05-05T14:19:24.403Z,36.96
2023-05-05T14:20:24.415Z,36.99
2023-05-05T14:21:24.442Z,36.99
2023-05-05T14:22:24.453Z,36.95
2023-05-05T14:23:24.470Z,36.97
2023-05-05T14:24:24.483Z,37.00
2023-05-05T14:25:24.601Z,36.98
2023-05-05T14:26:24.555Z,37.00
2023-05-05T14:27:24.542Z,37.00
2023-05-05T14:28:25.328Z,37.03
2023-05-05T14:29:24.575Z,37.02
2023-05-05T14:30:24.590Z,37.04
2023-05-05T14:31:24.668Z,37.05
2023-05-05T14:32:24.685Z,37.04
2023-05-05T14:33:24.681Z,37.03
2023-05-05T14:34:24.937Z,37.04
2023-05-05T14:35:24.680Z,37.09
2023-05-05T14:36:24.692Z,37.07
2023-05-05T14:37:24.723Z,37.08
2023-05-05T14:38:24.801Z,37.07
2023-05-05T14:39:24.943Z,37.10
2023-05-05T14:40:24.772Z,37.10
2023-05-05T14:41:24.885Z,37.10
2023-05-05T14:42:24.798Z,37.11
2023-05-05T14:43:24.818Z,37.15
2023-05-05T14:44:24.928Z,37.17
2023-05-05T14:45:24.864Z,37.18
2023-05-05T14:46:25.047Z,37.19
2023-05-05T14:47:24.898Z,37.19
2023-05-05T14:48:24.882Z,37.22
2023-05-05T14:49:24.900Z,37.24
2023-05-05T14:50:24.933Z,37.26
2023-05-05T14:51:24.929Z,37.29
2023-05-05T14:52:24.934Z,37.28
2023-05-05T14:53:24.961Z,37.28
2023-05-05T14:54:28.653Z,37.31
2023-05-05T14:55:24.982Z,37.35
2023-05-05T14:56:24.982Z,37.33
2023-05-05T14:57:25.032Z,37.35
2023-05-05T14:58:24.916Z,37.34
2023-05-05T14:59:24.913Z,37.35
2023-05-05T15:00:24.911Z,37.38
2023-05-05T15:01:24.961Z,37.39
2023-05-05T15:02:24.974Z,37.39
2023-05-05T15:03:24.998Z,37.40
2023-05-05T15:04:24.862Z,37.39
2023-05-05T15:05:24.852Z,37.41
2023-05-05T15:06:24.839Z,37.43
2023-05-05T15:07:24.827Z,37.43
2023-05-05T15:08:24.835Z,37.43
2023-05-05T15:09:24.830Z,37.45
2023-05-05T15:10:24.852Z,37.48
2023-05-05T15:11:24.862Z,37.44
2023-05-05T15:12:24.879Z,37.46
2023-05-05T15:13:24.992Z,37.47
2023-05-05T15:14:24.896Z,37.52
2023-05-05T15:15:25.079Z,37.49
2023-05-05T15:16:24.997Z,37.50
2023-05-05T15:17:24.959Z,37.53
2023-05-05T15:18:24.956Z,37.50
2023-05-05T15:19:24.959Z,37.53
2023-05-05T15:20:24.971Z,37.51
2023-05-05T15:21:24.992Z,37.51
2023-05-05T15:22:24.987Z,37.55
2023-05-05T15:23:25.005Z,37.51
2023-05-05T15:24:25.020Z,37.54
2023-05-05T15:25:25.033Z,37.57
2023-05-05T15:26:25.054Z,37.55
2023-05-05T15:27:25.134Z,37.56
2023-05-05T15:28:25.066Z,37.55
2023-05-05T15:29:25.179Z,37.55
2023-05-05T15:30:25.093Z,37.56
2023-05-05T15:31:25.126Z,37.55
2023-05-05T15:32:25.157Z,37.57
2023-05-05T15:33:25.114Z,37.57
2023-05-05T15:34:25.139Z,37.55
2023-05-05T15:35:25.133Z,37.55
2023-05-05T15:36:25.153Z,37.56
2023-05-05T15:37:25.157Z,37.56
2023-05-05T15:38:25.168Z,37.58
2023-05-05T15:39:25.186Z,37.58
2023-05-05T15:40:25.192Z,37.59
2023-05-05T15:41:25.206Z,37.55
2023-05-05T15:42:25.207Z,37.54
2023-05-05T15:43:25.220Z,37.54
2023-05-05T15:44:25.220Z,37.56
2023-05-05T15:45:25.338Z,37.55
2023-05-05T15:46:25.290Z,37.56
2023-05-05T15:47:25.299Z,37.55
2023-05-05T15:48:25.270Z,37.55
2023-05-05T15:49:25.285Z,37.55
2023-05-05T15:50:25.314Z,37.53
2023-05-05T15:51:25.304Z,37.53
2023-05-05T15:52:25.324Z,37.55
2023-05-05T15:53:25.329Z,37.53
2023-05-05T15:54:25.347Z,37.54
2023-05-05T15:55:25.357Z,37.53
2023-05-05T15:56:25.364Z,37.53
2023-05-05T15:57:25.378Z,37.52
2023-05-05T15:58:25.401Z,37.54
2023-05-05T15:59:25.394Z,37.53
2023-05-05T16:00:25.406Z,37.53
2023-05-05T16:01:25.599Z,37.53
2023-05-05T16:02:25.518Z,37.52
2023-05-05T16:03:25.501Z,37.54
2023-05-05T16:04:25.450Z,37.52
2023-05-05T16:05:25.449Z,37.52
2023-05-05T16:06:25.462Z,37.53
2023-05-05T16:07:25.463Z,37.52
2023-05-05T16:08:25.487Z,37.51
2023-05-05T16:09:25.484Z,37.53
2023-05-05T16:10:25.477Z,37.51
2023-05-05T16:11:25.490Z,37.51
2023-05-05T16:12:25.579Z,37.52
2023-05-05T16:13:25.499Z,37.53
2023-05-05T16:14:25.497Z,37.52
2023-05-05T16:15:25.508Z,37.52
2023-05-05T16:16:25.559Z,37.49
2023-05-05T16:17:25.690Z,37.53
2023-05-05T16:18:25.516Z,37.48
2023-05-05T16:19:25.526Z,37.51
2023-05-05T16:20:25.537Z,37.47
2023-05-05T16:21:25.536Z,37.50
2023-05-05T16:22:25.635Z,37.49
2023-05-05T16:23:25.564Z,37.49
2023-05-05T16:24:25.572Z,37.46
2023-05-05T16:25:25.597Z,37.49
2023-05-05T16:26:25.589Z,37.47
2023-05-05T16:27:25.593Z,37.49
2023-05-05T16:28:25.609Z,37.47
2023-05-05T16:29:25.611Z,37.49
2023-05-05T16:30:25.625Z,37.47
2023-05-05T16:31:25.641Z,37.45
2023-05-05T16:32:25.674Z,37.48
2023-05-05T16:33:25.762Z,37.45
2023-05-05T16:34:25.654Z,37.47
2023-05-05T16:35:25.663Z,37.47
2023-05-05T16:36:25.675Z,37.48
2023-05-05T16:37:25.663Z,37.45
2023-05-05T16:38:25.677Z,37.46
2023-05-05T16:39:25.683Z,37.47
2023-05-05T16:40:25.670Z,37.45
2023-05-05T16:41:25.849Z,37.46
2023-05-05T16:42:25.692Z,37.46
2023-05-05T16:43:25.741Z,37.45
2023-05-05T16:44:25.698Z,37.44
2023-05-05T16:45:25.693Z,37.44
2023-05-05T16:46:25.749Z,37.45
2023-05-05T16:47:25.720Z,37.44
2023-05-05T16:48:25.719Z,37.45
2023-05-05T16:49:25.789Z,37.42
2023-05-05T16:50:25.718Z,37.42
2023-05-05T16:51:25.694Z,37.41
2023-05-05T16:52:25.695Z,37.44
2023-05-05T16:53:25.685Z,37.44
2023-05-05T16:54:25.699Z,37.43
2023-05-05T16:55:25.700Z,37.43
2023-05-05T16:56:25.715Z,37.45
2023-05-05T16:57:25.709Z,37.42
2023-05-05T16:58:25.701Z,37.42
2023-05-05T16:59:25.709Z,37.43
2023-05-05T17:00:25.704Z,37.42
2023-05-05T17:01:25.746Z,37.42
2023-05-05T17:02:25.753Z,37.43
2023-05-05T17:03:25.735Z,37.41
2023-05-05T17:04:25.719Z,37.41
2023-05-05T17:05:25.895Z,37.37
2023-05-05T17:06:25.746Z,37.42
2023-05-05T17:07:25.723Z,37.44
2023-05-05T17:08:25.725Z,37.43
2023-05-05T17:09:25.731Z,37.42
2023-05-05T17:10:25.749Z,37.40
2023-05-05T17:11:25.745Z,37.41
2023-05-05T17:12:25.744Z,37.41
2023-05-05T17:13:25.759Z,37.42
2023-05-05T17:14:25.756Z,37.42
2023-05-05T17:15:25.768Z,37.41
2023-05-05T17:16:25.798Z,37.41
2023-05-05T17:17:25.852Z,37.41
2023-05-05T17:18:25.792Z,37.41
2023-05-05T17:19:25.795Z,37.40
2023-05-05T17:20:25.806Z,37.45
2023-05-05T17:21:25.837Z,37.40
2023-05-05T17:22:25.824Z,37.42
2023-05-05T17:23:25.831Z,37.43
2023-05-05T17:24:25.844Z,37.41
2023-05-05T17:25:25.847Z,37.41
2023-05-05T17:26:25.879Z,37.42
2023-05-05T17:27:25.862Z,37.43
2023-05-05T17:28:25.857Z,37.41
2023-05-05T17:29:25.878Z,37.43
2023-05-05T17:30:25.904Z,37.42
2023-05-05T17:31:26.012Z,37.42
2023-05-05T17:32:25.967Z,37.45
2023-05-05T17:33:25.913Z,37.43
2023-05-05T17:34:25.926Z,37.47
2023-05-05T17:35:25.937Z,37.44
2023-05-05T17:36:25.954Z,37.44
2023-05-05T17:37:26.127Z,37.46
2023-05-05T17:38:25.985Z,37.48
2023-05-05T17:39:25.990Z,37.46
2023-05-05T17:40:26.543Z,37.47
2023-05-05T17:41:26.670Z,37.49
2023-05-05T17:42:26.787Z,37.48
2023-05-05T17:43:26.074Z,37.47
2023-05-05T17:44:26.853Z,37.49
2023-05-05T17:45:26.389Z,37.48
2023-05-05T17:46:26.516Z,37.48
2023-05-05T17:47:26.453Z,37.49
2023-05-05T17:48:26.178Z,37.50
2023-05-05T17:49:26.111Z,37.50
2023-05-05T17:50:26.126Z,37.50
2023-05-05T17:51:26.152Z,37.52
2023-05-05T17:52:26.161Z,37.52
2023-05-05T17:53:26.283Z,37.49
2023-05-05T17:54:26.196Z,37.51
2023-05-05T17:55:26.237Z,37.51
2023-05-05T17:56:26.263Z,37.53
2023-05-05T17:57:26.255Z,37.53
2023-05-05T17:58:26.272Z,37.53
2023-05-05T17:59:26.296Z,37.52
2023-05-05T18:00:26.304Z,37.52
2023-05-05T18:01:26.383Z,37.50
2023-05-05T18:02:26.441Z,37.52
2023-05-05T18:03:26.546Z,37.53
2023-05-05T18:04:26.401Z,37.48
2023-05-05T18:05:26.435Z,37.45
2023-05-05T18:06:26.438Z,37.46
2023-05-05T18:07:26.456Z,37.45
2023-05-05T18:08:26.494Z,37.45
2023-05-05T18:09:26.528Z,37.48
2023-05-05T18:10:26.528Z,37.50
2023-05-05T18:11:26.605Z,37.48
2023-05-05T18:12:26.559Z,37.48
2023-05-05T18:13:26.571Z,37.47
2023-05-05T18:14:26.587Z,37.51
2023-05-05T18:15:26.630Z,37.50
2023-05-05T18:16:26.675Z,37.45
2023-05-05T18:17:26.653Z,37.49
2023-05-05T18:18:26.689Z,37.49
2023-05-05T18:19:26.687Z,37.50